Time;durP1;ratioP1;P1;durP2;ratioP2;P2;SDS_P1;SDS_P2;PMS_P1;PMS_P2;Temp;Humidity;BMP_temperature;BMP_pressure;BME280_temperature;BME280_humidity;BME280_pressure;Samples;Min_cycle;Max_cycle;Signal;HPM_P1;HPM_P2
2022/02/04 00:22:56;;;;;;;;;9.25;7.25;;;;;;;;6309937;22;45595;-78
2022/02/04 00:25:34;;;;;;;;;16.75;9.25;;;;;;;;6281515;22;45146;-78
2022/02/04 00:28:02;;;;;;;;;17.25;14.75;;;;;;;;6308950;22;45316;-78
2022/02/04 00:30:34;;;;;;;;;9.50;8.00;;;;;;;;6309887;22;45184;-78
2022/02/04 00:33:01;;;;;;;;;20.00;13.00;;;;;;;;6309766;22;45926;-78
2022/02/04 00:38:18;;;;;;;;;11.00;10.00;;;;;;;;6309664;22;45242;-78
2022/02/04 00:40:47;;;;;;;;;17.00;9.50;;;;;;;;6281536;22;45608;-78
2022/02/04 00:43:14;;;;;;;;;18.50;13.50;;;;;;;;6305956;22;45490;-77
2022/02/04 00:45:57;;;;;;;;;18.00;10.00;;;;;;;;6281619;22;45167;-76
2022/02/04 00:53:36;;;;;;;;;22.25;13.25;;;;;;;;6310048;22;45302;-77
2022/02/04 00:56:19;;;;;;;;;18.00;13.25;;;;;;;;6281155;22;45506;-77
2022/02/04 01:26:16;;;;;;;;;13.25;9.75;;;;;;;;6309436;22;45201;-77
2022/02/04 01:28:43;;;;;;;;;19.50;13.75;;;;;;;;6281622;22;45397;-77
2022/02/04 01:31:11;;;;;;;;;15.25;13.75;;;;;;;;6309523;22;45382;-77
2022/02/04 01:33:37;;;;;;;;;15.25;14.00;;;;;;;;6309173;22;45654;-77
2022/02/04 01:36:02;;;;;;;;;14.75;8.50;;;;;;;;6309917;22;45512;-76
2022/02/04 01:38:28;;;;;;;;;15.50;12.25;;;;;;;;6308431;22;45406;-77
2022/02/04 01:40:54;;;;;;;;;19.50;12.00;;;;;;;;6309701;22;45489;-77
2022/02/04 01:43:22;;;;;;;;;17.75;13.25;;;;;;;;6309379;22;45260;-77
2022/02/04 01:45:58;;;;;;;;;14.75;11.25;;;;;;;;6308920;22;45186;-77
2022/02/04 01:48:23;;;;;;;;;12.75;12.75;;;;;;;;6309098;22;45326;-77
2022/02/04 01:50:50;;;;;;;;;14.00;13.00;;;;;;;;6281483;22;45727;-77
2022/02/04 01:53:17;;;;;;;;;16.50;12.00;;;;;;;;6309419;22;45402;-77
2022/02/04 01:55:43;;;;;;;;;17.75;14.25;;;;;;;;6280659;22;46282;-77
2022/02/04 01:58:09;;;;;;;;;13.50;11.25;;;;;;;;6308887;22;45255;-77
2022/02/04 02:00:36;;;;;;;;;13.50;12.00;;;;;;;;6281333;22;45315;-76
2022/02/04 02:03:01;;;;;;;;;15.00;10.50;;;;;;;;6308393;22;45253;-77
2022/02/04 02:05:26;;;;;;;;;14.50;11.75;;;;;;;;6280252;22;47330;-77
2022/02/04 02:07:51;;;;;;;;;12.67;8.67;;;;;;;;6309128;22;45254;-77
2022/02/04 02:10:19;;;;;;;;;21.33;15.00;;;;;;;;6281319;22;45296;-76
2022/02/04 03:03:22;;;;;;;;;14.25;8.50;;;;;;;;6310054;22;45271;-76
2022/02/04 03:05:48;;;;;;;;;13.00;8.00;;;;;;;;6310342;22;45195;-77
2022/02/04 03:08:13;;;;;;;;;11.50;9.00;;;;;;;;6282118;22;46107;-77
2022/02/04 03:10:38;;;;;;;;;12.25;9.25;;;;;;;;6310430;22;45188;-77
2022/02/04 03:13:06;;;;;;;;;9.00;6.75;;;;;;;;6309847;22;45208;-77
2022/02/04 03:15:32;;;;;;;;;11.25;8.50;;;;;;;;6281884;22;45201;-77
2022/02/04 03:18:04;;;;;;;;;10.75;8.25;;;;;;;;6309415;22;45218;-77
2022/02/04 03:20:37;;;;;;;;;12.75;8.25;;;;;;;;6310605;22;45176;-77
2022/02/04 03:23:03;;;;;;;;;10.75;8.00;;;;;;;;6310297;22;45164;-77
2022/02/04 03:25:28;;;;;;;;;9.25;9.25;;;;;;;;6309611;22;45554;-76
2022/02/04 03:27:58;;;;;;;;;7.25;5.50;;;;;;;;6309063;22;46046;-77
2022/02/04 03:30:30;;;;;;;;;13.75;7.75;;;;;;;;6309778;22;45410;-77
2022/02/04 03:33:00;;;;;;;;;8.50;6.75;;;;;;;;6309517;22;46076;-76
2022/02/04 03:35:26;;;;;;;;;14.50;8.00;;;;;;;;6309429;22;45362;-76
2022/02/04 03:37:53;;;;;;;;;13.75;9.75;;;;;;;;6309654;22;45882;-76
2022/02/04 03:40:19;;;;;;;;;9.00;7.00;;;;;;;;6310207;22;45244;-77
2022/02/04 03:42:44;;;;;;;;;7.25;4.00;;;;;;;;6310179;22;45241;-77
2022/02/04 03:45:10;;;;;;;;;10.75;7.00;;;;;;;;6309915;22;45110;-77
2022/02/04 03:47:35;;;;;;;;;12.25;8.00;;;;;;;;6281372;22;46341;-77
2022/02/04 03:50:00;;;;;;;;;11.00;7.50;;;;;;;;6310347;22;45082;-76
2022/02/04 03:52:25;;;;;;;;;10.00;7.33;;;;;;;;6310510;22;45229;-76
2022/02/04 03:54:51;;;;;;;;;13.67;9.00;;;;;;;;6281799;22;45429;-77
2022/02/04 03:57:16;;;;;;;;;14.67;10.00;;;;;;;;6308550;22;45453;-77
2022/02/04 03:59:41;;;;;;;;;13.00;8.00;;;;;;;;6310063;22;45205;-76
2022/02/04 04:02:06;;;;;;;;;10.67;6.33;;;;;;;;6308912;22;45279;-76
2022/02/04 04:04:34;;;;;;;;;15.00;10.00;;;;;;;;6309472;22;45162;-76
2022/02/04 04:07:00;;;;;;;;;17.25;13.00;;;;;;;;6309922;22;46132;-77
2022/02/04 04:09:25;;;;;;;;;16.25;9.25;;;;;;;;6309685;22;45352;-76
2022/02/04 04:11:51;;;;;;;;;14.00;8.50;;;;;;;;6309768;22;45386;-77
2022/02/04 04:14:18;;;;;;;;;13.50;9.00;;;;;;;;6309676;22;45244;-77
2022/02/04 04:16:43;;;;;;;;;17.25;14.75;;;;;;;;6310121;22;46119;-77
2022/02/04 04:19:09;;;;;;;;;16.75;11.25;;;;;;;;6309618;22;45375;-76
2022/02/04 04:21:34;;;;;;;;;15.75;12.00;;;;;;;;6310255;22;45230;-76
2022/02/04 04:24:00;;;;;;;;;18.00;14.50;;;;;;;;6281651;22;45546;-76
2022/02/04 04:26:25;;;;;;;;;13.75;12.25;;;;;;;;6309305;22;45628;-76
2022/02/04 04:28:50;;;;;;;;;16.00;12.50;;;;;;;;6309684;22;45137;-77
2022/02/04 04:31:18;;;;;;;;;19.67;11.33;;;;;;;;6309828;22;45311;-76
2022/02/04 04:33:43;;;;;;;;;24.50;14.25;;;;;;;;6309939;22;45267;-77
2022/02/04 04:36:08;;;;;;;;;17.50;15.25;;;;;;;;6310162;22;46332;-76
2022/02/04 04:38:43;;;;;;;;;21.33;13.00;;;;;;;;6308982;22;45361;-76
2022/02/04 04:41:21;;;;;;;;;15.00;13.25;;;;;;;;6309785;22;45396;-77
2022/02/04 05:29:41;;;;;;;;;23.00;15.00;;;;;;;;6309091;22;45354;-76
2022/02/04 05:32:07;;;;;;;;;20.33;16.00;;;;;;;;6309156;22;45232;-77
2022/02/04 05:34:32;;;;;;;;;20.50;14.50;;;;;;;;6308845;22;45504;-77
2022/02/04 05:37:05;;;;;;;;;23.50;15.00;;;;;;;;6309572;22;45536;-77
2022/02/04 05:39:37;;;;;;;;;21.00;14.25;;;;;;;;6308356;22;45978;-77
2022/02/04 05:42:04;;;;;;;;;26.50;15.00;;;;;;;;6308910;22;45362;-77
2022/02/04 05:44:30;;;;;;;;;19.00;15.75;;;;;;;;6309643;22;45425;-77
2022/02/04 05:47:01;;;;;;;;;16.75;15.00;;;;;;;;6309154;22;45674;-77
2022/02/04 05:49:29;;;;;;;;;24.50;13.25;;;;;;;;6317320;22;45324;-77
2022/02/04 06:02:22;;;;;;;;;17.75;16.50;;;;;;;;6309542;22;45512;-78
2022/02/04 06:04:55;;;;;;;;;26.75;15.75;;;;;;;;6307680;22;45363;-78
2022/02/04 06:07:32;;;;;;;;;21.50;14.25;;;;;;;;6308882;22;45152;-78
2022/02/04 06:15:29;;;;;;;;;18.50;17.25;;;;;;;;6308437;22;45094;-78
2022/02/04 06:23:22;;;;;;;;;24.75;17.50;;;;;;;;6308929;22;45560;-78
2022/02/04 06:25:47;;;;;;;;;21.75;16.25;;;;;;;;6309908;22;45101;-78
2022/02/04 06:28:15;;;;;;;;;18.75;15.25;;;;;;;;6309638;22;45259;-78
2022/02/04 06:30:41;;;;;;;;;20.50;17.25;;;;;;;;6281772;22;46032;-78
2022/02/04 06:33:06;;;;;;;;;21.50;14.75;;;;;;;;6281554;22;45681;-78
2022/02/04 06:35:34;;;;;;;;;21.50;15.50;;;;;;;;6310230;22;45315;-78
2022/02/04 06:38:00;;;;;;;;;22.50;16.00;;;;;;;;6308871;22;45397;-77
2022/02/04 06:40:26;;;;;;;;;24.25;17.00;;;;;;;;6310058;22;45340;-77
2022/02/04 06:42:51;;;;;;;;;19.00;14.50;;;;;;;;6309407;22;45231;-78
2022/02/04 06:45:16;;;;;;;;;20.50;17.75;;;;;;;;6310220;22;45423;-78
2022/02/04 06:47:43;;;;;;;;;21.00;17.00;;;;;;;;6310298;22;45223;-79
2022/02/04 06:50:08;;;;;;;;;20.50;16.50;;;;;;;;6309388;22;45473;-78
2022/02/04 06:52:33;;;;;;;;;24.75;15.75;;;;;;;;6311135;22;45360;-78
2022/02/04 06:54:58;;;;;;;;;24.00;18.33;;;;;;;;6309668;22;45418;-78
2022/02/04 06:57:24;;;;;;;;;21.33;19.00;;;;;;;;6309657;22;45357;-77
2022/02/04 06:59:52;;;;;;;;;22.75;16.75;;;;;;;;6310636;22;45472;-77
2022/02/04 07:02:17;;;;;;;;;27.25;18.25;;;;;;;;6284283;22;45564;-77
2022/02/04 07:04:43;;;;;;;;;20.33;19.00;;;;;;;;6281915;22;45375;-77
2022/02/04 07:07:08;;;;;;;;;23.25;15.00;;;;;;;;6309666;22;45357;-78
2022/02/04 07:09:55;;;;;;;;;25.50;16.00;;;;;;;;6305661;22;45567;-78
2022/02/04 07:12:34;;;;;;;;;21.75;18.25;;;;;;;;6306610;22;45564;-78
2022/02/04 07:17:33;;;;;;;;;29.67;14.67;;;;;;;;6304155;22;45236;-78
2022/02/04 07:20:00;;;;;;;;;16.50;13.00;;;;;;;;6307374;22;45442;-78
2022/02/04 07:22:27;;;;;;;;;21.25;17.25;;;;;;;;6309346;22;45737;-79
2022/02/04 07:24:56;;;;;;;;;23.50;16.25;;;;;;;;6281968;22;45292;-79
2022/02/04 07:27:22;;;;;;;;;22.50;18.50;;;;;;;;6281070;22;45535;-79
2022/02/04 07:29:48;;;;;;;;;23.75;18.75;;;;;;;;6309405;22;46170;-78
2022/02/04 07:32:20;;;;;;;;;26.00;18.00;;;;;;;;6308959;22;45414;-79
2022/02/04 07:35:13;;;;;;;;;23.50;14.50;;;;;;;;6308228;22;45545;-78
2022/02/04 07:43:01;;;;;;;;;23.50;14.75;;;;;;;;6309501;22;45242;-82
2022/02/04 07:45:27;;;;;;;;;15.25;12.50;;;;;;;;6282192;22;45217;-79
2022/02/04 07:47:52;;;;;;;;;28.33;18.00;;;;;;;;6309009;22;45167;-80
2022/02/04 07:50:20;;;;;;;;;21.33;17.67;;;;;;;;6308857;22;45394;-80
2022/02/04 07:52:46;;;;;;;;;19.00;16.00;;;;;;;;6303963;22;45811;-80
2022/02/04 07:55:11;;;;;;;;;18.50;14.25;;;;;;;;6309004;22;45350;-80
2022/02/04 07:57:37;;;;;;;;;14.67;10.33;;;;;;;;6308876;22;45302;-80
2022/02/04 08:00:03;;;;;;;;;24.33;15.00;;;;;;;;6308286;22;45393;-80
2022/02/04 08:02:28;;;;;;;;;16.50;13.75;;;;;;;;6280541;22;45290;-80
2022/02/04 08:04:58;;;;;;;;;22.25;17.25;;;;;;;;6283322;22;45094;-80
2022/02/04 08:07:27;;;;;;;;;16.00;12.50;;;;;;;;6309667;22;45442;-80
2022/02/04 08:10:06;;;;;;;;;15.00;12.00;;;;;;;;6309728;22;46127;-80
2022/02/04 08:26:15;;;;;;;;;17.33;9.00;;;;;;;;6309560;22;45252;-80
2022/02/04 08:55:06;;;;;;;;;18.00;13.75;;;;;;;;6309640;22;45153;-80
2022/02/04 09:00:46;;;;;;;;;16.75;11.25;;;;;;;;6309012;22;45434;-80
2022/02/04 09:03:01;;;;;;;;;17.75;14.50;;;;;;;;6288579;22;45933;-80
2022/02/04 09:05:40;;;;;;;;;20.25;15.75;;;;;;;;6310210;22;45323;-80
2022/02/04 09:08:26;;;;;;;;;16.00;11.75;;;;;;;;6309728;22;45259;-80
2022/02/04 09:10:53;;;;;;;;;13.50;12.75;;;;;;;;6309506;22;45247;-80
2022/02/04 09:19:01;;;;;;;;;16.75;12.00;;;;;;;;6310119;22;45370;-80
2022/02/04 09:21:48;;;;;;;;;18.25;11.50;;;;;;;;6280795;22;45500;-80
2022/02/04 09:24:15;;;;;;;;;12.50;12.00;;;;;;;;6308731;22;45308;-80
2022/02/04 09:26:41;;;;;;;;;20.00;13.50;;;;;;;;6281407;22;45588;-80
2022/02/04 09:29:06;;;;;;;;;13.75;10.00;;;;;;;;6310170;22;45181;-80
2022/02/04 09:31:33;;;;;;;;;20.00;14.75;;;;;;;;6281896;22;45351;-80
2022/02/04 09:33:58;;;;;;;;;18.50;11.25;;;;;;;;6281670;22;47048;-80
2022/02/04 09:36:24;;;;;;;;;20.00;12.33;;;;;;;;6281706;22;45267;-80
2022/02/04 09:38:49;;;;;;;;;15.67;13.33;;;;;;;;6280844;22;45283;-80
2022/02/04 09:41:17;;;;;;;;;16.67;10.67;;;;;;;;6308501;22;45295;-81
2022/02/04 09:43:43;;;;;;;;;20.00;12.25;;;;;;;;6308973;22;45967;-80
2022/02/04 09:46:08;;;;;;;;;18.50;10.75;;;;;;;;6309175;22;45276;-80
2022/02/04 09:48:33;;;;;;;;;13.00;10.00;;;;;;;;6307919;22;45164;-80
2022/02/04 09:50:59;;;;;;;;;12.33;10.33;;;;;;;;6307942;22;45172;-80
2022/02/04 10:05:01;;;;;;;;;11.50;9.75;;;;;;;;6310825;22;45239;-80
2022/02/04 10:18:03;;;;;;;;;10.25;8.00;;;;;;;;6309229;22;45112;-80
2022/02/04 10:20:28;;;;;;;;;9.75;9.75;;;;;;;;6285666;22;45177;-80
2022/02/04 10:22:53;;;;;;;;;13.00;10.00;;;;;;;;6309487;22;45465;-80
2022/02/04 10:25:19;;;;;;;;;10.25;9.00;;;;;;;;6310964;22;45350;-80
2022/02/04 10:27:46;;;;;;;;;10.00;8.50;;;;;;;;6280617;22;45480;-80
2022/02/04 10:30:16;;;;;;;;;8.75;7.50;;;;;;;;6311143;22;45352;-80
2022/02/04 10:32:48;;;;;;;;;13.25;10.50;;;;;;;;6280987;22;45346;-80
2022/02/04 10:35:13;;;;;;;;;10.00;7.75;;;;;;;;6310477;22;45418;-80
2022/02/04 10:40:45;;;;;;;;;12.00;10.25;;;;;;;;6296666;22;45164;-80
2022/02/04 10:51:37;;;;;;;;;9.50;9.50;;;;;;;;6310775;22;45255;-81
2022/02/04 10:54:46;;;;;;;;;8.50;5.75;;;;;;;;6309799;22;45233;-80
2022/02/04 11:04:28;;;;;;;;;11.00;11.00;;;;;;;;6310584;22;45078;-80
2022/02/04 11:32:12;;;;;;;;;9.75;6.25;;;;;;;;6310530;22;45520;-80
2022/02/04 11:34:57;;;;;;;;;9.50;6.00;;;;;;;;6309242;22;45474;-80
2022/02/04 11:51:30;;;;;;;;;4.00;4.00;;;;;;;;6309609;22;45251;-83
2022/02/04 11:56:57;;;;;;;;;6.00;3.25;;;;;;;;6310515;22;45330;-83
2022/02/04 11:59:38;;;;;;;;;8.50;5.00;;;;;;;;6310894;22;45549;-83
2022/02/04 12:02:23;;;;;;;;;6.25;4.75;;;;;;;;6310481;22;45338;-83
2022/02/04 12:04:48;;;;;;;;;5.00;5.00;;;;;;;;6282218;22;45350;-84
2022/02/04 12:07:32;;;;;;;;;6.00;3.00;;;;;;;;6282919;22;45648;-84
2022/02/04 12:09:57;;;;;;;;;8.00;4.75;;;;;;;;6283970;22;45344;-83
2022/02/04 12:12:41;;;;;;;;;5.00;3.00;;;;;;;;6314203;22;45352;-84
2022/02/04 12:15:36;;;;;;;;;20.00;17.00;;;;;;;;6284927;22;45951;-82
2022/02/04 12:18:12;;;;;;;;;3.50;3.25;;;;;;;;6279069;22;45358;-83
2022/02/04 12:20:47;;;;;;;;;4.75;4.00;;;;;;;;6310572;22;45244;-83
2022/02/04 12:23:36;;;;;;;;;2.50;2.50;;;;;;;;6281917;22;46468;-83
2022/02/04 12:26:03;;;;;;;;;4.50;3.00;;;;;;;;6310100;22;45211;-84
2022/02/04 12:28:41;;;;;;;;;3.00;3.00;;;;;;;;6282173;22;45287;-83
2022/02/04 12:31:06;;;;;;;;;6.00;3.00;;;;;;;;6282526;22;45489;-83
2022/02/04 12:33:37;;;;;;;;;2.00;2.00;;;;;;;;6310447;22;46264;-83
2022/02/04 12:36:03;;;;;;;;;2.00;2.00;;;;;;;;6310336;22;45227;-83
2022/02/04 12:38:28;;;;;;;;;2.50;1.25;;;;;;;;6309943;22;45837;-83
2022/02/04 12:40:59;;;;;;;;;1.67;1.67;;;;;;;;6310213;22;45322;-83
2022/02/04 12:43:25;;;;;;;;;4.25;2.00;;;;;;;;6281615;22;47090;-83
2022/02/04 12:45:50;;;;;;;;;4.50;1.50;;;;;;;;6310204;22;45444;-83
2022/02/04 12:48:18;;;;;;;;;5.00;2.00;;;;;;;;6310838;22;45188;-83
2022/02/04 12:50:51;;;;;;;;;3.00;3.00;;;;;;;;6310467;22;45357;-83
2022/02/04 12:53:26;;;;;;;;;3.50;2.00;;;;;;;;6310307;22;45184;-83
2022/02/04 12:56:14;;;;;;;;;4.75;2.00;;;;;;;;6282619;22;45866;-83
2022/02/04 12:58:55;;;;;;;;;3.00;3.00;;;;;;;;6310331;22;45369;-83
2022/02/04 13:09:50;;;;;;;;;4.75;1.00;;;;;;;;6311251;22;45306;-87
2022/02/04 13:12:18;;;;;;;;;2.00;1.50;;;;;;;;6283082;22;45381;-87
2022/02/04 13:14:43;;;;;;;;;5.25;5.00;;;;;;;;6284752;22;47231;-86
2022/02/04 13:17:08;;;;;;;;;1.00;1.00;;;;;;;;6283690;22;45208;-85
2022/02/04 13:19:34;;;;;;;;;7.25;6.25;;;;;;;;6282624;22;45142;-86
2022/02/04 13:21:59;;;;;;;;;1.75;1.00;;;;;;;;6282303;22;45315;-86
2022/02/04 13:24:24;;;;;;;;;2.25;2.00;;;;;;;;6311343;22;46379;-85
2022/02/04 13:26:50;;;;;;;;;1.00;1.00;;;;;;;;6311314;22;45093;-83
2022/02/04 13:29:16;;;;;;;;;2.00;2.00;;;;;;;;6310913;22;45152;-85
2022/02/04 13:31:42;;;;;;;;;3.75;2.00;;;;;;;;6311218;22;45248;-84
2022/02/04 13:34:08;;;;;;;;;3.00;3.00;;;;;;;;6290639;22;47541;-87
2022/02/04 13:36:41;;;;;;;;;2.00;2.00;;;;;;;;6304685;22;45054;-88
2022/02/04 13:50:07;;;;;;;;;2.25;2.25;;;;;;;;6317266;22;45196;-85
2022/02/04 13:57:46;;;;;;;;;3.25;2.00;;;;;;;;6316249;22;45539;-86
2022/02/04 14:02:47;;;;;;;;;2.00;0.75;;;;;;;;6316315;22;45636;-88
2022/02/04 14:05:23;;;;;;;;;0.00;0.00;;;;;;;;6310688;22;45421;-86
2022/02/04 14:07:53;;;;;;;;;1.50;1.50;;;;;;;;6308815;22;45669;-86
2022/02/04 14:10:23;;;;;;;;;1.00;1.00;;;;;;;;6310398;22;45251;-87
2022/02/04 14:12:58;;;;;;;;;1.00;1.00;;;;;;;;6309570;22;45322;-87
2022/02/04 14:15:28;;;;;;;;;3.25;1.00;;;;;;;;6282143;22;46573;-86
2022/02/04 14:17:57;;;;;;;;;1.00;1.00;;;;;;;;6281392;22;45682;-86
2022/02/04 14:20:23;;;;;;;;;4.00;2.00;;;;;;;;6281788;22;45366;-86
2022/02/04 14:22:48;;;;;;;;;1.50;1.50;;;;;;;;6310132;22;45275;-86
2022/02/04 14:25:14;;;;;;;;;1.25;1.25;;;;;;;;6308690;22;45368;-86
2022/02/04 14:27:40;;;;;;;;;5.00;1.67;;;;;;;;6280407;22;45328;-85
2022/02/04 14:30:14;;;;;;;;;0.75;0.75;;;;;;;;6278567;22;45216;-86
2022/02/04 14:32:50;;;;;;;;;4.00;2.00;;;;;;;;6279781;22;45133;-86
2022/02/04 14:35:27;;;;;;;;;1.00;1.00;;;;;;;;6309158;22;46220;-84
2022/02/04 14:54:06;;;;;;;;;3.75;2.75;;;;;;;;6310771;22;45620;-85
2022/02/04 15:00:04;;;;;;;;;2.75;1.00;;;;;;;;6310388;22;45653;-85
2022/02/04 15:02:11;;;;;;;;;1.00;1.00;;;;;;;;6310212;22;45362;-85
2022/02/04 15:04:42;;;;;;;;;2.75;1.25;;;;;;;;6310067;22;45490;-84
2022/02/04 15:07:08;;;;;;;;;2.00;1.00;;;;;;;;6280961;22;47758;-85
2022/02/04 15:09:36;;;;;;;;;1.00;1.00;;;;;;;;6310916;22;45363;-84
2022/02/04 15:12:01;;;;;;;;;0.00;0.00;;;;;;;;6310340;22;45279;-84
2022/02/04 15:14:26;;;;;;;;;1.00;1.00;;;;;;;;6283347;22;45646;-85
2022/02/04 15:16:52;;;;;;;;;1.25;1.25;;;;;;;;6285192;22;47933;-85
2022/02/04 15:19:17;;;;;;;;;3.67;3.00;;;;;;;;6311448;22;45292;-85
2022/02/04 15:21:46;;;;;;;;;3.00;3.00;;;;;;;;6313972;22;45335;-84
2022/02/04 15:24:11;;;;;;;;;3.25;2.00;;;;;;;;6309634;22;45151;-84
2022/02/04 15:26:37;;;;;;;;;3.50;2.00;;;;;;;;6281755;22;46804;-85
2022/02/04 15:29:09;;;;;;;;;3.00;1.25;;;;;;;;6282946;22;45332;-85
2022/02/04 15:31:52;;;;;;;;;1.50;1.50;;;;;;;;6283154;22;45173;-84
2022/02/04 15:34:18;;;;;;;;;3.00;2.00;;;;;;;;6309708;22;45360;-84
2022/02/04 15:38:15;;;;;;;;;;;;;;;;;;2903878;22;124156012;-84
2022/02/04 15:49:11;;;;;;;;;0.00;0.00;;;;;;;;1183659;22;259005389;-84
2022/02/04 16:06:27;;;;;;;;;1.00;1.00;;;;;;;;2;261025425;261025425;-84
2022/02/04 16:14:53;;;;;;;;;2.50;2.50;;;;;;;;2;261076615;261076615;-83
2022/02/04 16:32:16;;;;;;;;;0.00;0.00;;;;;;;;2;260838120;260838120;-82
2022/02/04 16:41:20;;;;;;;;;0.50;0.50;;;;;;;;2;261077524;261077524;-83
2022/02/04 16:49:37;;;;;;;;;2.50;2.50;;;;;;;;2;261072664;261072664;-83
2022/02/04 16:58:38;;;;;;;;;1.00;1.00;;;;;;;;2;261075943;261075943;-84
2022/02/04 17:07:01;;;;;;;;;1.50;1.50;;;;;;;;2;261076709;261076709;-84
2022/02/04 17:16:01;;;;;;;;;0.00;0.00;;;;;;;;2;261078546;261078546;-83
2022/02/04 17:24:19;;;;;;;;;12.50;1.00;;;;;;;;2;261078698;261078698;-85
2022/02/04 17:33:19;;;;;;;;;7.00;7.00;;;;;;;;2;260989303;260989303;-83
2022/02/04 17:41:34;;;;;;;;;14.50;3.00;;;;;;;;2;261075756;261075756;-84
2022/02/04 17:50:53;;;;;;;;;9.00;6.00;;;;;;;;2;261078311;261078311;-87
2022/02/04 18:08:27;;;;;;;;;6.50;6.50;;;;;;;;2;261078388;261078388;-84
2022/02/04 18:16:44;;;;;;;;;5.50;5.50;;;;;;;;2;261076986;261076986;-85
2022/02/04 18:25:45;;;;;;;;;5.50;5.50;;;;;;;;2;261075741;261075741;-85
2022/02/04 18:34:05;;;;;;;;;5.00;5.00;;;;;;;;2;261076453;261076453;-88
2022/02/04 19:00:36;;;;;;;;;4.00;4.00;;;;;;;;2;261074095;261074095;-80
2022/02/04 19:08:57;;;;;;;;;2.00;2.00;;;;;;;;2;261075156;261075156;-82
2022/02/04 19:18:03;;;;;;;;;15.00;3.00;;;;;;;;2;261076961;261076961;-81
2022/02/04 19:26:25;;;;;;;;;5.00;5.00;;;;;;;;2;261076560;261076560;-82
2022/02/04 19:35:26;;;;;;;;;9.00;9.00;;;;;;;;2;261080316;261080316;-82
2022/02/04 19:43:47;;;;;;;;;6.50;6.50;;;;;;;;2;261078627;261078627;-81
2022/02/04 20:28:34;;;;;;;;;5.50;5.50;;;;;;;;2;261076788;261076788;-81
2022/02/04 20:36:49;;;;;;;;;11.00;8.50;;;;;;;;2;260796199;260796199;-80
2022/02/04 20:45:49;;;;;;;;;22.50;10.50;;;;;;;;2;261077373;261077373;-81
2022/02/04 20:54:04;;;;;;;;;9.50;9.50;;;;;;;;2;260774836;260774836;-82
2022/02/04 21:03:05;;;;;;;;;5.50;5.50;;;;;;;;2;259989150;259989150;-82
2022/02/04 21:20:39;;;;;;;;;15.50;6.50;;;;;;;;2;261077470;261077470;-81
2022/02/04 21:29:10;;;;;;;;;5.50;5.50;;;;;;;;2;258635138;258635138;-82
2022/02/04 21:38:12;;;;;;;;;4.50;4.50;;;;;;;;2;261080526;261080526;-81
2022/02/04 21:46:29;;;;;;;;;2.00;2.00;;;;;;;;2;261079148;261079148;-81
2022/02/04 21:55:27;;;;;;;;;15.50;6.50;;;;;;;;2;258267425;258267425;-81
2022/02/04 22:03:43;;;;;;;;;7.50;3.00;;;;;;;;2;261074743;261074743;-81
2022/02/04 22:30:02;;;;;;;;;1.00;1.00;;;;;;;;2;256495295;256495295;-82
2022/02/04 22:42:54;;;;;;;;;8.00;4.00;;;;;;;;2;155265340;155265340;-83
2022/02/04 22:59:15;;;;;;;;;19.50;3.50;;;;;;;;3;134485501;186803744;-84
2022/02/04 23:07:13;;;;;;;;;;;;;;;;;;2;223960006;223960006;-84
2022/02/04 23:16:16;;;;;;;;;1.00;1.00;;;;;;;;2;272828484;272828484;-87
2022/02/04 23:24:34;;;;;;;;;3.50;3.50;;;;;;;;2;234071327;234071327;-86
2022/02/04 23:45:21;;;;;;;;;2.00;2.00;;;;;;;;2;219677773;219677773;-85
2022/02/04 23:51:50;;;;;;;;;1.00;1.00;;;;;;;;3;140024185;181847340;-84
2022/02/04 23:54:16;;;;;;;;;5.00;3.00;;;;;;;;6295638;22;8742;-85
2022/02/04 23:56:41;;;;;;;;;2.00;2.00;;;;;;;;6293542;22;9639;-84
